Time;durP1;ratioP1;P1;durP2;ratioP2;P2;SDS_P1;SDS_P2;PMS_P1;PMS_P2;Temp;Humidity;BMP_temperature;BMP_pressure;BME280_temperature;BME280_humidity;BME280_pressure;Samples;Min_cycle;Max_cycle;Signal;HPM_P1;HPM_P2
2023/01/04 00:02:22;;;;;;;5.13;3.77;;;9.70;99.90;;;;;;5013049;28;20290;-80
2023/01/04 00:04:49;;;;;;;4.97;4.30;;;9.70;99.90;;;;;;5013450;28;20286;-78
2023/01/04 00:07:16;;;;;;;7.50;3.67;;;9.70;99.90;;;;;;5013027;28;20297;-77
2023/01/04 00:09:43;;;;;;;4.67;3.00;;;9.70;99.90;;;;;;5012292;28;20234;-82
2023/01/04 00:12:10;;;;;;;4.80;3.03;;;9.70;99.90;;;;;;5013690;28;20207;-82
2023/01/04 00:14:37;;;;;;;3.10;2.80;;;9.70;99.90;;;;;;5013521;28;20223;-82
2023/01/04 00:17:04;;;;;;;4.13;2.80;;;9.70;99.90;;;;;;5012855;28;20675;-80
2023/01/04 00:19:32;;;;;;;4.00;2.80;;;9.70;99.90;;;;;;5013144;28;20218;-83
2023/01/04 00:21:59;;;;;;;5.50;2.50;;;9.70;99.90;;;;;;5012459;28;20188;-78
2023/01/04 00:24:26;;;;;;;3.47;2.10;;;9.80;99.90;;;;;;5012696;28;20306;-81
2023/01/04 00:26:53;;;;;;;2.90;1.93;;;9.80;99.90;;;;;;5021895;28;20285;-79
2023/01/04 00:29:20;;;;;;;2.83;2.00;;;9.80;99.90;;;;;;5032615;28;20226;-77
2023/01/04 00:31:47;;;;;;;2.80;2.27;;;9.80;99.90;;;;;;5032514;28;20232;-83
2023/01/04 00:34:16;;;;;;;3.67;2.00;;;9.70;99.90;;;;;;5032100;28;20278;-79
2023/01/04 00:36:45;;;;;;;3.43;2.03;;;9.80;99.90;;;;;;5031709;28;20701;-76
2023/01/04 00:39:14;;;;;;;4.90;1.63;;;9.80;99.90;;;;;;5012265;28;20574;-83
2023/01/04 00:41:43;;;;;;;3.87;1.70;;;9.70;99.90;;;;;;5013419;28;20211;-82
2023/01/04 00:44:11;;;;;;;2.67;1.50;;;9.80;99.90;;;;;;5012879;28;20241;-79
2023/01/04 00:46:38;;;;;;;3.33;1.90;;;9.80;99.90;;;;;;5014827;28;20282;-81
2023/01/04 00:49:07;;;;;;;2.63;1.70;;;9.90;99.90;;;;;;5033416;28;20234;-84
2023/01/04 00:51:35;;;;;;;1.93;1.70;;;9.90;99.90;;;;;;5028048;28;20199;-84
2023/01/04 00:54:05;;;;;;;3.10;1.60;;;9.90;99.90;;;;;;5013676;28;20686;-82
2023/01/04 00:56:33;;;;;;;1.63;1.43;;;9.90;99.90;;;;;;5015046;28;20217;-83
2023/01/04 00:59:02;;;;;;;2.13;1.60;;;9.90;99.90;;;;;;5014132;28;20258;-86
2023/01/04 01:01:31;;;;;;;1.73;1.27;;;10.00;99.90;;;;;;5013527;28;20208;-87
2023/01/04 01:04:00;;;;;;;2.83;1.80;;;10.00;99.90;;;;;;5013323;28;20687;-85
2023/01/04 01:06:28;;;;;;;1.53;1.43;;;10.00;99.90;;;;;;5026486;28;20229;-85
2023/01/04 01:08:55;;;;;;;3.77;1.80;;;10.10;99.90;;;;;;5033548;28;20227;-88
2023/01/04 01:11:24;;;;;;;4.30;2.03;;;10.20;99.90;;;;;;5016157;28;20702;-86
2023/01/04 01:13:51;;;;;;;3.77;2.20;;;10.20;99.90;;;;;;5013561;28;20223;-89
2023/01/04 01:16:20;;;;;;;2.00;1.83;;;10.20;99.90;;;;;;5012715;28;20290;-84
2023/01/04 01:18:47;;;;;;;2.67;2.40;;;10.20;99.90;;;;;;5012132;28;20245;-85
2023/01/04 01:21:16;;;;;;;7.73;3.20;;;10.30;99.90;;;;;;5013245;28;20230;-84
2023/01/04 01:23:43;;;;;;;5.27;2.40;;;10.30;99.90;;;;;;5011868;28;20219;-87
2023/01/04 01:26:13;;;;;;;6.67;2.40;;;10.30;99.90;;;;;;5025268;28;20202;-79
2023/01/04 01:28:42;;;;;;;7.97;2.90;;;10.40;99.90;;;;;;5032242;28;20195;-80
2023/01/04 01:31:11;;;;;;;5.80;2.67;;;10.50;99.90;;;;;;5024015;28;20305;-86
2023/01/04 01:33:38;;;;;;;9.60;2.97;;;10.50;99.90;;;;;;5012930;28;20293;-79
2023/01/04 01:36:06;;;;;;;15.07;3.73;;;10.50;99.90;;;;;;5013124;28;20282;-78
2023/01/04 01:38:33;;;;;;;10.67;3.20;;;10.50;99.90;;;;;;5016276;28;20311;-85
2023/01/04 01:41:00;;;;;;;9.70;3.87;;;10.50;99.90;;;;;;5030609;28;20202;-90
2023/01/04 01:43:50;;;;;;;16.03;4.13;;;10.50;99.90;;;;;;5013425;28;20313;-83
2023/01/04 01:46:21;;;;;;;9.70;3.40;;;10.50;99.90;;;;;;5013171;28;20202;-85
2023/01/04 01:48:48;;;;;;;12.77;3.63;;;10.60;99.90;;;;;;5013378;28;20215;-83
2023/01/04 01:51:17;;;;;;;11.53;3.60;;;10.60;99.90;;;;;;5013824;28;20203;-81
2023/01/04 01:53:48;;;;;;;9.03;3.20;;;10.60;99.90;;;;;;5017014;28;20203;-79
2023/01/04 01:56:18;;;;;;;16.00;4.10;;;10.60;99.90;;;;;;5016634;28;20277;-82
2023/01/04 01:58:49;;;;;;;15.07;3.87;;;10.60;99.90;;;;;;5017152;28;20199;-80
2023/01/04 02:01:18;;;;;;;14.10;4.37;;;10.60;99.90;;;;;;5015829;28;20198;-79
2023/01/04 02:03:45;;;;;;;14.77;3.77;;;10.60;99.90;;;;;;5016220;28;20227;-83
2023/01/04 02:06:14;;;;;;;13.63;4.20;;;10.60;99.90;;;;;;5016239;28;20599;-80
2023/01/04 02:08:42;;;;;;;15.63;4.63;;;10.60;99.90;;;;;;5016445;28;20391;-87
2023/01/04 02:11:10;;;;;;;17.77;4.63;;;10.60;99.90;;;;;;5017304;28;20215;-80
2023/01/04 02:16:37;;;;;;;22.23;5.37;;;10.70;99.90;;;;;;5042685;28;20263;-85
2023/01/04 02:19:20;;;;;;;16.27;5.23;;;10.70;99.90;;;;;;5042057;28;20212;-79
2023/01/04 02:21:59;;;;;;;19.07;5.40;;;10.70;99.90;;;;;;5035408;28;20222;-81
2023/01/04 02:24:41;;;;;;;12.17;4.67;;;10.70;99.90;;;;;;5035857;28;20274;-79
2023/01/04 02:27:39;;;;;;;20.80;6.20;;;10.70;99.90;;;;;;5034816;28;20217;-82
2023/01/04 02:30:31;;;;;;;15.90;5.70;;;10.70;99.90;;;;;;5027088;28;20252;-86
2023/01/04 02:33:18;;;;;;;14.53;4.90;;;10.80;99.90;;;;;;4997206;28;20217;-82
2023/01/04 02:35:58;;;;;;;19.17;5.03;;;10.80;99.90;;;;;;5015478;28;20183;-79
2023/01/04 02:38:32;;;;;;;14.13;5.40;;;10.70;99.90;;;;;;5027263;28;20200;-77
2023/01/04 02:41:06;;;;;;;12.97;5.03;;;10.80;99.90;;;;;;5034567;28;20598;-82
2023/01/04 02:46:28;;;;;;;20.83;5.60;;;10.80;99.90;;;;;;5014817;28;20280;-79
2023/01/04 02:51:44;;;;;;;17.33;5.30;;;10.80;99.90;;;;;;5014331;28;20199;-92
2023/01/04 02:54:14;;;;;;;26.03;5.93;;;10.80;99.90;;;;;;5014998;28;20195;-89
2023/01/04 02:57:15;;;;;;;26.00;5.97;;;10.90;99.90;;;;;;5015558;28;20583;-83
2023/01/04 02:59:56;;;;;;;18.53;4.67;;;10.90;99.90;;;;;;5014137;28;20214;-79
2023/01/04 03:08:28;;;;;;;20.73;5.93;;;10.90;99.90;;;;;;5034655;28;20299;-83
2023/01/04 03:11:01;;;;;;;19.87;6.00;;;10.90;99.90;;;;;;5034337;28;20301;-85
2023/01/04 03:13:34;;;;;;;26.10;5.83;;;10.90;99.90;;;;;;5035370;28;20198;-80
2023/01/04 03:16:06;;;;;;;20.47;6.90;;;10.90;99.90;;;;;;5015497;28;20180;-85
2023/01/04 03:18:37;;;;;;;14.83;5.90;;;10.90;99.90;;;;;;5029463;28;20226;-89
2023/01/04 03:21:09;;;;;;;31.07;6.60;;;10.90;99.90;;;;;;5035769;28;20270;-85
2023/01/04 03:35:22;;;;;;;17.43;4.93;;;10.90;99.90;;;;;;5032927;28;20244;-85
2023/01/04 03:43:08;;;;;;;15.40;5.17;;;10.90;99.90;;;;;;5035245;28;20269;-86
2023/01/04 03:49:18;;;;;;;18.87;5.43;;;11.00;99.90;;;;;;5015404;28;20229;-85
2023/01/04 03:51:46;;;;;;;19.37;5.77;;;11.00;99.90;;;;;;5015219;28;20275;-93
2023/01/04 03:54:19;;;;;;;20.23;5.53;;;11.00;99.90;;;;;;5013899;28;20278;-85
2023/01/04 03:56:47;;;;;;;18.13;6.03;;;11.00;99.90;;;;;;5031485;28;20194;-85
2023/01/04 03:59:14;;;;;;;19.07;6.17;;;11.00;99.90;;;;;;5033847;28;20278;-83
2023/01/04 04:01:43;;;;;;;25.00;5.73;;;11.00;99.90;;;;;;5016847;28;20528;-89
2023/01/04 04:09:41;;;;;;;22.10;6.07;;;11.10;99.90;;;;;;5015866;28;20230;-79
2023/01/04 04:12:08;;;;;;;16.97;6.03;;;11.10;99.90;;;;;;5014442;28;20291;-80
2023/01/04 04:14:36;;;;;;;17.80;5.63;;;11.10;99.90;;;;;;5013124;28;20305;-84
2023/01/04 04:17:03;;;;;;;18.93;5.73;;;11.10;99.90;;;;;;5013507;28;20205;-84
2023/01/04 04:19:30;;;;;;;19.97;5.73;;;11.00;99.90;;;;;;5013498;28;20285;-81
2023/01/04 04:21:56;;;;;;;21.77;6.27;;;11.10;99.90;;;;;;5011771;28;20215;-83
2023/01/04 04:24:25;;;;;;;25.37;7.23;;;11.10;99.90;;;;;;5013381;28;20311;-86
2023/01/04 04:26:55;;;;;;;24.07;6.30;;;11.10;99.90;;;;;;5013873;28;20282;-87
2023/01/04 04:29:23;;;;;;;22.67;5.63;;;11.10;99.90;;;;;;5013964;28;20492;-89
2023/01/04 04:31:50;;;;;;;25.67;5.57;;;11.10;99.90;;;;;;5014061;28;20592;-83
2023/01/04 04:34:16;;;;;;;23.27;5.40;;;11.10;99.90;;;;;;5029684;28;20264;-87
2023/01/04 04:36:43;;;;;;;24.27;5.57;;;11.10;99.90;;;;;;5031806;28;20286;-87
2023/01/04 04:39:11;;;;;;;26.63;5.40;;;11.00;99.90;;;;;;5033524;28;20844;-83
2023/01/04 04:41:37;;;;;;;26.33;5.60;;;11.00;99.90;;;;;;5029478;28;20223;-86
2023/01/04 04:44:06;;;;;;;25.77;5.43;;;11.10;99.90;;;;;;5014358;28;20657;-89
2023/01/04 04:46:33;;;;;;;23.53;5.47;;;11.00;99.90;;;;;;5013999;28;20218;-91
2023/01/04 04:49:00;;;;;;;30.47;5.80;;;11.00;99.90;;;;;;5014320;28;20671;-83
2023/01/04 04:51:27;;;;;;;31.80;6.30;;;11.00;99.90;;;;;;5013854;28;20228;-85
2023/01/04 04:53:54;;;;;;;25.20;6.30;;;11.00;99.90;;;;;;5022816;28;20195;-81
2023/01/04 04:56:21;;;;;;;27.27;5.43;;;11.00;99.90;;;;;;5033677;28;20217;-90
2023/01/04 04:58:48;;;;;;;30.90;6.60;;;11.00;99.90;;;;;;5017014;28;20214;-84
2023/01/04 05:01:17;;;;;;;27.40;5.30;;;11.00;99.90;;;;;;5014095;28;20250;-86
2023/01/04 05:03:44;;;;;;;27.13;6.50;;;11.00;99.90;;;;;;5014351;28;20620;-85
2023/01/04 05:06:11;;;;;;;30.40;5.30;;;11.00;99.90;;;;;;5013443;28;20234;-82
2023/01/04 05:08:37;;;;;;;22.87;5.40;;;11.00;99.90;;;;;;5013242;28;20586;-83
2023/01/04 05:11:06;;;;;;;30.33;6.73;;;11.00;99.90;;;;;;5012633;28;20579;-84
2023/01/04 05:13:32;;;;;;;30.00;6.30;;;11.00;99.90;;;;;;5012209;28;20527;-83
2023/01/04 05:15:59;;;;;;;24.30;5.27;;;11.00;99.90;;;;;;5012734;28;20203;-78
2023/01/04 05:18:27;;;;;;;27.00;4.63;;;11.00;99.90;;;;;;5012709;28;20210;-80
2023/01/04 05:20:54;;;;;;;25.60;4.73;;;11.00;99.90;;;;;;5032202;28;20203;-81
2023/01/04 05:23:21;;;;;;;22.73;4.83;;;11.00;99.90;;;;;;5028247;28;20314;-80
2023/01/04 05:25:52;;;;;;;21.83;4.33;;;11.00;99.90;;;;;;5011752;28;20516;-82
2023/01/04 05:28:20;;;;;;;18.17;4.53;;;11.10;99.90;;;;;;5015941;28;20241;-88
2023/01/04 05:30:51;;;;;;;21.07;4.13;;;11.00;99.90;;;;;;5030167;28;20716;-77
2023/01/04 05:33:19;;;;;;;24.70;5.33;;;11.10;99.90;;;;;;5035242;28;20217;-79
2023/01/04 05:35:48;;;;;;;24.50;5.43;;;11.10;99.90;;;;;;5035178;28;20224;-78
2023/01/04 05:38:16;;;;;;;25.97;5.60;;;11.10;99.90;;;;;;5035071;28;20290;-78
2023/01/04 05:40:42;;;;;;;18.77;5.13;;;11.10;99.90;;;;;;5015323;28;20211;-79
2023/01/04 05:43:09;;;;;;;24.03;4.53;;;11.20;99.90;;;;;;5014829;28;20230;-79
2023/01/04 05:45:36;;;;;;;20.87;5.40;;;11.20;99.90;;;;;;5014440;28;20702;-78
2023/01/04 05:48:04;;;;;;;14.80;4.93;;;11.20;99.90;;;;;;5014482;28;20206;-81
2023/01/04 05:50:31;;;;;;;19.17;5.17;;;11.20;99.90;;;;;;5014905;28;20227;-84
2023/01/04 05:52:59;;;;;;;18.67;4.87;;;11.20;99.90;;;;;;5015717;28;20213;-86
2023/01/04 05:55:26;;;;;;;24.47;5.80;;;11.20;99.90;;;;;;5015622;28;20196;-85
2023/01/04 05:57:53;;;;;;;27.13;6.10;;;11.20;99.90;;;;;;5016421;28;20306;-82
2023/01/04 06:00:20;;;;;;;25.13;5.90;;;11.20;99.90;;;;;;5015508;28;20280;-83
2023/01/04 06:02:47;;;;;;;23.37;5.97;;;11.20;99.90;;;;;;5015347;28;20199;-77
2023/01/04 06:05:14;;;;;;;33.00;7.10;;;11.20;99.90;;;;;;5014447;28;20223;-79
2023/01/04 06:07:41;;;;;;;22.63;5.57;;;11.20;99.90;;;;;;5015557;28;20203;-81
2023/01/04 06:10:12;;;;;;;24.90;5.90;;;11.20;99.90;;;;;;5016363;28;20317;-82
2023/01/04 06:12:39;;;;;;;29.77;5.63;;;11.30;99.90;;;;;;5015720;28;20242;-82
2023/01/04 06:15:07;;;;;;;29.67;6.27;;;11.20;99.90;;;;;;5031348;28;20269;-84
2023/01/04 06:17:35;;;;;;;26.83;6.00;;;11.20;99.90;;;;;;5027187;28;20327;-89
2023/01/04 06:20:03;;;;;;;21.07;5.83;;;11.20;99.90;;;;;;5016223;28;20282;-84
2023/01/04 06:22:31;;;;;;;29.50;5.83;;;11.20;99.90;;;;;;5015745;28;20226;-82
2023/01/04 06:24:58;;;;;;;30.67;6.13;;;11.20;99.90;;;;;;5014281;28;20258;-80
2023/01/04 06:27:26;;;;;;;30.90;6.77;;;11.20;99.90;;;;;;5014291;28;20199;-81
2023/01/04 06:29:53;;;;;;;25.43;6.37;;;11.20;99.90;;;;;;5014772;28;20229;-91
2023/01/04 06:32:20;;;;;;;25.13;5.90;;;11.20;99.90;;;;;;5016657;28;20230;-91
2023/01/04 06:34:48;;;;;;;23.47;5.00;;;11.20;99.90;;;;;;5018255;28;20558;-79
2023/01/04 06:37:14;;;;;;;26.57;5.27;;;11.20;99.90;;;;;;5014918;28;20290;-80
2023/01/04 06:39:41;;;;;;;25.67;5.83;;;11.20;99.90;;;;;;5015600;28;20291;-83
2023/01/04 06:42:43;;;;;;;20.77;5.13;;;11.10;99.90;;;;;;5015050;28;20334;-80
2023/01/04 06:44:58;;;;;;;23.77;6.47;;;11.20;99.90;;;;;;5014981;28;20242;-86
2023/01/04 06:47:25;;;;;;;25.87;5.50;;;11.10;99.90;;;;;;5014088;28;20207;-80
2023/01/04 06:49:52;;;;;;;29.73;5.80;;;11.20;99.90;;;;;;5034042;28;20301;-83
2023/01/04 06:52:19;;;;;;;21.80;5.70;;;11.20;99.90;;;;;;5035028;28;20198;-84
2023/01/04 06:54:46;;;;;;;33.70;6.87;;;11.20;99.90;;;;;;5020940;28;20227;-81
2023/01/04 06:57:13;;;;;;;28.13;6.80;;;11.10;99.90;;;;;;5015360;28;20205;-80
2023/01/04 06:59:40;;;;;;;35.20;7.83;;;11.10;99.90;;;;;;5014948;28;20207;-83
2023/01/04 07:02:13;;;;;;;34.73;6.77;;;11.10;99.90;;;;;;5014778;28;20213;-88
2023/01/04 07:04:40;;;;;;;34.53;7.27;;;11.10;99.90;;;;;;5015095;28;20274;-81
2023/01/04 07:07:07;;;;;;;38.33;8.03;;;11.10;99.90;;;;;;5014627;28;20203;-82
2023/01/04 07:09:34;;;;;;;37.70;7.37;;;11.10;99.90;;;;;;5014509;28;20223;-82
2023/01/04 07:12:01;;;;;;;36.53;7.73;;;11.10;99.90;;;;;;5014025;28;20203;-81
2023/01/04 07:14:28;;;;;;;32.03;6.97;;;11.00;99.90;;;;;;5013451;28;20804;-90
2023/01/04 07:16:55;;;;;;;39.80;7.33;;;11.00;99.90;;;;;;5014270;28;20235;-81
2023/01/04 07:19:24;;;;;;;45.73;8.37;;;11.00;99.90;;;;;;5013988;28;20239;-88
2023/01/04 07:21:52;;;;;;;47.90;8.20;;;11.00;99.90;;;;;;5014151;28;20203;-84
2023/01/04 07:24:20;;;;;;;42.07;8.97;;;11.00;99.90;;;;;;5014275;28;20199;-86
2023/01/04 07:26:48;;;;;;;41.73;8.70;;;11.00;99.90;;;;;;5033708;28;20245;-86
2023/01/04 07:29:15;;;;;;;36.73;8.07;;;11.00;99.90;;;;;;5033081;28;20234;-82
2023/01/04 07:31:44;;;;;;;32.00;7.23;;;11.00;99.90;;;;;;5038658;28;20199;-89
2023/01/04 07:34:12;;;;;;;39.97;7.27;;;11.00;99.90;;;;;;5033668;28;20240;-90
2023/01/04 07:36:40;;;;;;;42.97;8.60;;;11.00;99.90;;;;;;5032008;28;20549;-89
2023/01/04 07:39:09;;;;;;;49.77;7.93;;;11.00;99.90;;;;;;5038875;28;20241;-82
2023/01/04 07:41:36;;;;;;;44.37;8.40;;;11.00;99.90;;;;;;5034701;28;20207;-81
2023/01/04 07:44:05;;;;;;;37.63;8.70;;;11.00;99.90;;;;;;5025242;28;20209;-88
2023/01/04 07:46:32;;;;;;;33.90;8.63;;;11.00;99.90;;;;;;5034236;28;20233;-86
2023/01/04 07:49:00;;;;;;;36.93;6.97;;;11.00;99.90;;;;;;5022229;28;20230;-84
2023/01/04 07:51:27;;;;;;;33.53;6.93;;;11.00;99.90;;;;;;5015414;28;20209;-91
2023/01/04 07:53:55;;;;;;;34.67;8.13;;;10.90;99.90;;;;;;5014363;28;20206;-85
2023/01/04 07:56:22;;;;;;;38.60;8.77;;;10.90;99.90;;;;;;5013672;28;20269;-84
2023/01/04 07:58:49;;;;;;;35.97;8.83;;;11.00;99.90;;;;;;5013673;28;20590;-82
2023/01/04 08:01:19;;;;;;;34.90;7.53;;;11.00;99.90;;;;;;5013558;28;20203;-82
2023/01/04 08:03:47;;;;;;;42.07;9.37;;;11.00;99.90;;;;;;5022154;28;20202;-83
2023/01/04 08:06:16;;;;;;;24.63;8.07;;;11.00;99.90;;;;;;5034139;28;20305;-82
2023/01/04 08:08:43;;;;;;;36.03;8.03;;;11.00;99.90;;;;;;5033418;28;20273;-81
2023/01/04 08:11:14;;;;;;;36.03;8.83;;;11.00;99.90;;;;;;5034483;28;20266;-83
2023/01/04 08:13:40;;;;;;;34.07;8.23;;;11.00;99.90;;;;;;5022584;28;20229;-82
2023/01/04 08:16:09;;;;;;;32.43;9.47;;;11.00;99.90;;;;;;5033244;28;20197;-79
2023/01/04 08:18:38;;;;;;;35.67;10.63;;;11.00;99.90;;;;;;5029268;28;20199;-79
2023/01/04 08:21:07;;;;;;;41.63;10.17;;;11.00;99.90;;;;;;5033369;28;20209;-87
2023/01/04 08:23:35;;;;;;;33.43;7.90;;;11.00;99.90;;;;;;5031288;28;20207;-84
2023/01/04 08:26:04;;;;;;;36.10;9.23;;;11.00;99.90;;;;;;5024133;28;20237;-87
2023/01/04 08:28:33;;;;;;;40.27;9.13;;;11.00;99.90;;;;;;5017569;28;20612;-85
2023/01/04 08:31:04;;;;;;;32.87;7.43;;;11.10;99.90;;;;;;5033384;28;20286;-79
2023/01/04 08:33:31;;;;;;;29.17;8.50;;;11.10;99.90;;;;;;5029485;28;20186;-85
2023/01/04 08:36:07;;;;;;;34.43;7.93;;;11.10;99.90;;;;;;5020189;28;20350;-82
2023/01/04 08:38:34;;;;;;;30.90;8.07;;;11.10;99.90;;;;;;5028465;28;20562;-90
2023/01/04 08:41:01;;;;;;;30.13;8.00;;;11.10;99.90;;;;;;5025942;28;20233;-79
2023/01/04 08:43:28;;;;;;;40.17;8.47;;;11.20;99.90;;;;;;5031219;28;20210;-89
2023/01/04 08:45:56;;;;;;;39.17;9.17;;;11.20;99.90;;;;;;5031403;28;20222;-84
2023/01/04 08:48:23;;;;;;;41.80;11.57;;;11.20;99.90;;;;;;5031790;28;20213;-88
2023/01/04 08:50:50;;;;;;;57.50;11.23;;;11.20;99.90;;;;;;5024633;28;20620;-90
2023/01/04 08:53:16;;;;;;;47.90;9.33;;;11.20;99.90;;;;;;5029632;28;20308;-89
2023/01/04 08:55:49;;;;;;;45.50;10.57;;;11.20;99.90;;;;;;5025467;28;20238;-92
2023/01/04 08:58:16;;;;;;;45.97;9.03;;;11.20;99.90;;;;;;5014969;28;20198;-84
2023/01/04 09:00:43;;;;;;;61.67;11.80;;;11.20;99.90;;;;;;5012815;28;20592;-84
2023/01/04 09:03:12;;;;;;;53.03;9.93;;;11.20;99.90;;;;;;5024491;28;20690;-89
2023/01/04 09:05:39;;;;;;;53.03;10.93;;;11.30;99.90;;;;;;5033785;28;20233;-89
2023/01/04 09:08:06;;;;;;;43.80;10.00;;;11.30;99.90;;;;;;5033679;28;20716;-92
2023/01/04 09:10:33;;;;;;;63.73;11.90;;;11.30;99.90;;;;;;5035015;28;20244;-82
2023/01/04 09:12:59;;;;;;;58.63;10.27;;;11.40;99.90;;;;;;5033767;28;20206;-90
2023/01/04 09:15:26;;;;;;;56.97;12.20;;;11.30;99.90;;;;;;5016948;28;20346;-84
2023/01/04 09:17:53;;;;;;;64.40;12.07;;;11.30;99.90;;;;;;5034211;28;20413;-88
2023/01/04 09:20:22;;;;;;;62.00;11.97;;;11.40;99.90;;;;;;5034968;28;20218;-89
2023/01/04 09:22:49;;;;;;;78.17;13.67;;;11.40;99.90;;;;;;5034819;28;20270;-91
2023/01/04 09:25:16;;;;;;;61.57;14.53;;;11.40;99.90;;;;;;5034502;28;20297;-90
2023/01/04 09:27:44;;;;;;;69.17;13.33;;;11.40;99.90;;;;;;5034713;28;20203;-93
2023/01/04 09:30:12;;;;;;;67.93;15.60;;;11.50;99.90;;;;;;5039270;28;20195;-92
2023/01/04 09:32:39;;;;;;;75.20;14.83;;;11.50;99.90;;;;;;5041460;28;20245;-94
2023/01/04 09:35:07;;;;;;;69.00;11.80;;;11.50;99.90;;;;;;5042611;28;20277;-92
2023/01/04 09:37:35;;;;;;;65.47;12.63;;;11.40;99.90;;;;;;5037316;28;20206;-91
2023/01/04 09:40:02;;;;;;;59.17;11.67;;;11.40;99.90;;;;;;5035922;28;20206;-94
2023/01/04 09:42:33;;;;;;;60.73;10.83;;;11.40;99.90;;;;;;5045347;28;20656;-87
2023/01/04 09:45:09;;;;;;;63.83;11.57;;;11.40;99.90;;;;;;5041510;28;20870;-83
2023/01/04 09:47:42;;;;;;;59.63;10.17;;;11.40;99.90;;;;;;5021911;28;20213;-95
2023/01/04 09:50:13;;;;;;;55.17;12.20;;;11.50;99.90;;;;;;5025718;28;20229;-90
2023/01/04 09:52:55;;;;;;;72.53;14.97;;;11.50;99.90;;;;;;5041700;28;20194;-92
2023/01/04 09:55:26;;;;;;;58.53;11.60;;;11.50;99.90;;;;;;5014516;28;20602;-93
2023/01/04 09:57:57;;;;;;;57.93;10.90;;;11.40;99.90;;;;;;5043492;28;20545;-92
2023/01/04 10:00:28;;;;;;;62.17;11.57;;;11.50;99.90;;;;;;5047694;28;20198;-92
2023/01/04 10:03:01;;;;;;;59.33;12.20;;;11.50;99.90;;;;;;5050413;28;20198;-85
2023/01/04 10:05:30;;;;;;;61.57;11.40;;;11.50;99.90;;;;;;5041582;28;21086;-93
2023/01/04 10:07:58;;;;;;;58.73;11.63;;;11.50;99.90;;;;;;5043265;28;20282;-89
2023/01/04 10:10:43;;;;;;;59.67;11.60;;;11.50;99.90;;;;;;5048149;28;20225;-91
2023/01/04 10:13:21;;;;;;;64.63;11.13;;;11.50;99.90;;;;;;5016631;28;20203;-89
2023/01/04 10:15:54;;;;;;;55.10;11.37;;;11.60;99.90;;;;;;5017992;28;20231;-79
2023/01/04 10:18:29;;;;;;;51.37;9.80;;;11.60;99.90;;;;;;5014788;28;20206;-77
2023/01/04 10:21:31;;;;;;;52.53;9.97;;;11.70;99.90;;;;;;5034091;28;20230;-89
2023/01/04 10:24:22;;;;;;;45.47;9.93;;;11.70;99.90;;;;;;5041637;28;20185;-89
2023/01/04 10:26:50;;;;;;;50.23;9.87;;;11.70;99.90;;;;;;5045515;28;20269;-85
2023/01/04 10:29:43;;;;;;;49.93;9.83;;;11.70;99.90;;;;;;5039554;28;20198;-87
2023/01/04 10:32:19;;;;;;;43.53;9.50;;;11.70;99.90;;;;;;5046967;28;20209;-84
2023/01/04 10:34:47;;;;;;;41.70;8.90;;;11.80;99.90;;;;;;5053963;28;20536;-87
2023/01/04 10:37:17;;;;;;;45.33;9.87;;;11.70;99.90;;;;;;5030985;28;20562;-77
2023/01/04 10:39:47;;;;;;;38.93;8.10;;;11.80;99.90;;;;;;5033970;28;20216;-81
2023/01/04 10:42:19;;;;;;;30.83;7.10;;;11.70;99.90;;;;;;5036536;28;20290;-82
2023/01/04 10:44:57;;;;;;;23.10;7.10;;;11.70;99.90;;;;;;5028129;28;20191;-83
2023/01/04 10:47:32;;;;;;;22.90;6.00;;;11.80;99.90;;;;;;5026407;28;20209;-84
2023/01/04 10:50:05;;;;;;;36.43;8.03;;;11.80;99.90;;;;;;5034348;28;20273;-79
2023/01/04 10:52:38;;;;;;;30.43;7.17;;;11.70;99.90;;;;;;5039347;28;20309;-82
2023/01/04 10:55:11;;;;;;;25.30;5.50;;;11.70;99.90;;;;;;5038848;28;20281;-81
2023/01/04 10:57:42;;;;;;;24.97;6.17;;;11.70;99.90;;;;;;5034558;28;20206;-86
2023/01/04 11:00:15;;;;;;;20.10;5.53;;;11.70;99.90;;;;;;5032361;28;20485;-81
2023/01/04 11:02:47;;;;;;;22.63;5.20;;;11.60;99.90;;;;;;5045661;28;20594;-84
2023/01/04 11:05:20;;;;;;;28.10;6.23;;;11.70;99.90;;;;;;5055620;28;20215;-81
2023/01/04 11:07:53;;;;;;;29.47;6.97;;;11.70;99.90;;;;;;5051859;28;20217;-82
2023/01/04 11:10:26;;;;;;;22.57;6.20;;;11.60;99.90;;;;;;5014173;28;20285;-82
2023/01/04 11:12:53;;;;;;;28.90;6.33;;;11.70;99.90;;;;;;5028920;28;20572;-84
2023/01/04 11:15:20;;;;;;;29.43;6.37;;;11.60;99.90;;;;;;5039060;28;20250;-86
2023/01/04 11:17:48;;;;;;;26.03;6.93;;;11.60;99.90;;;;;;5035851;28;20202;-89
2023/01/04 11:20:15;;;;;;;26.80;6.30;;;11.70;99.90;;;;;;5049512;28;20621;-92
2023/01/04 11:22:48;;;;;;;20.50;6.30;;;11.70;99.90;;;;;;5052482;28;20269;-88
2023/01/04 11:25:19;;;;;;;28.00;7.50;;;11.70;99.90;;;;;;5014969;28;20219;-90
2023/01/04 11:27:52;;;;;;;32.07;7.47;;;11.70;99.90;;;;;;5029199;28;20246;-85
2023/01/04 11:30:23;;;;;;;33.87;7.43;;;11.70;99.90;;;;;;5038572;28;20473;-85
2023/01/04 11:32:55;;;;;;;35.67;7.47;;;11.70;99.90;;;;;;5031186;28;20226;-84
2023/01/04 11:35:41;;;;;;;40.63;8.53;;;11.70;99.90;;;;;;5040626;28;20199;-89
2023/01/04 11:38:12;;;;;;;39.93;8.70;;;11.70;99.90;;;;;;5050168;28;20190;-87
2023/01/04 11:40:40;;;;;;;30.17;7.60;;;11.70;99.90;;;;;;5055044;28;20302;-84
2023/01/04 11:43:19;;;;;;;42.73;8.40;;;11.70;99.90;;;;;;5035953;28;20217;-87
2023/01/04 11:46:21;;;;;;;48.80;10.40;;;11.70;99.90;;;;;;5035770;28;20274;-87
2023/01/04 11:48:48;;;;;;;46.17;9.83;;;11.70;99.90;;;;;;5031226;28;20245;-89
2023/01/04 11:53:40;;;;;;;31.10;8.30;;;11.70;99.90;;;;;;5037157;23;20326;-86
2023/01/04 11:56:17;;;;;;;41.83;8.50;;;11.70;99.90;;;;;;5034526;28;20217;-80
2023/01/04 11:59:00;;;;;;;51.60;10.27;;;11.70;99.90;;;;;;5034773;28;20614;-78
2023/01/04 12:01:27;;;;;;;45.57;9.93;;;11.70;99.90;;;;;;5020973;28;20286;-78
2023/01/04 12:03:55;;;;;;;46.93;10.27;;;11.70;99.90;;;;;;5013048;28;20250;-77
2023/01/04 12:06:30;;;;;;;41.43;9.90;;;11.70;99.90;;;;;;5012327;28;20719;-80
2023/01/04 12:08:57;;;;;;;40.90;10.73;;;11.70;99.90;;;;;;5027028;28;20798;-78
2023/01/04 12:11:28;;;;;;;43.93;9.77;;;11.70;99.90;;;;;;5032209;28;20201;-80
2023/01/04 12:13:58;;;;;;;49.97;9.07;;;11.70;99.90;;;;;;5032476;28;20282;-78
2023/01/04 12:16:38;;;;;;;47.13;8.17;;;11.70;99.90;;;;;;5024333;28;20290;-79
2023/01/04 12:19:05;;;;;;;43.40;8.47;;;11.70;99.90;;;;;;5012403;28;20195;-87
2023/01/04 12:21:35;;;;;;;50.83;9.23;;;11.70;99.90;;;;;;5011171;28;20203;-79
2023/01/04 12:24:07;;;;;;;49.47;8.73;;;11.70;99.90;;;;;;5012546;28;20663;-76
2023/01/04 12:26:40;;;;;;;46.63;8.97;;;11.70;99.90;;;;;;5024791;28;20508;-78
2023/01/04 12:29:48;;;;;;;45.30;9.03;;;11.70;99.90;;;;;;5030932;28;20949;-78
2023/01/04 12:32:40;;;;;;;39.03;8.60;;;11.70;99.90;;;;;;4985709;28;20207;-77
2023/01/04 12:36:03;;;;;;;36.50;9.67;;;11.70;99.90;;;;;;5014402;28;20391;-77
2023/01/04 12:39:16;;;;;;;41.03;8.97;;;11.70;99.90;;;;;;5031393;28;20198;-78
2023/01/04 12:42:22;;;;;;;42.53;9.27;;;11.80;99.90;;;;;;5043678;28;20212;-77
2023/01/04 12:45:22;;;;;;;44.47;10.30;;;11.80;99.90;;;;;;5012875;28;20253;-76
2023/01/04 12:51:22;;;;;;;39.60;7.03;;;11.80;99.90;;;;;;5022493;28;20487;-77
2023/01/04 12:54:00;;;;;;;35.13;8.10;;;11.80;99.90;;;;;;4993879;28;20196;-78
2023/01/04 12:57:04;;;;;;;35.90;7.87;;;11.90;99.90;;;;;;5011118;28;20209;-77
2023/01/04 12:59:34;;;;;;;33.90;6.97;;;11.90;99.90;;;;;;5008335;28;20290;-82
2023/01/04 13:02:20;;;;;;;35.07;7.60;;;11.90;99.90;;;;;;5000561;28;20292;-76
2023/01/04 13:04:49;;;;;;;40.47;7.57;;;12.00;99.90;;;;;;4995251;28;20238;-76
2023/01/04 13:07:23;;;;;;;34.90;7.53;;;11.90;99.90;;;;;;5004331;28;20318;-77
2023/01/04 13:09:57;;;;;;;36.17;7.80;;;11.90;99.90;;;;;;5027770;28;20214;-83
2023/01/04 13:12:46;;;;;;;35.67;7.63;;;11.90;99.90;;;;;;5011444;28;20598;-76
2023/01/04 13:15:20;;;;;;;49.30;8.00;;;11.90;99.90;;;;;;5017025;28;20643;-76
2023/01/04 13:17:48;;;;;;;40.93;7.17;;;11.90;99.90;;;;;;5021490;28;20222;-86
2023/01/04 13:20:20;;;;;;;39.80;8.03;;;11.90;99.90;;;;;;5031911;28;20512;-77
2023/01/04 13:22:52;;;;;;;35.30;8.43;;;11.90;99.90;;;;;;5017900;28;20668;-78
2023/01/04 13:25:20;;;;;;;33.27;7.70;;;11.80;99.90;;;;;;4997006;28;20199;-78
2023/01/04 13:27:59;;;;;;;33.53;7.67;;;11.80;99.90;;;;;;5011038;28;20227;-77
2023/01/04 13:30:34;;;;;;;32.43;8.63;;;11.90;99.90;;;;;;5010675;28;20198;-79
2023/01/04 13:33:09;;;;;;;27.37;7.43;;;11.80;99.90;;;;;;5001305;28;20610;-77
2023/01/04 13:35:37;;;;;;;35.83;8.63;;;11.80;99.90;;;;;;4998962;28;20218;-77
2023/01/04 13:38:13;;;;;;;27.13;6.80;;;11.80;99.90;;;;;;5009642;28;20665;-77
2023/01/04 13:40:44;;;;;;;35.27;8.23;;;11.80;99.90;;;;;;4999627;28;20226;-77
2023/01/04 13:43:52;;;;;;;33.57;7.60;;;11.80;99.90;;;;;;5010528;28;20192;-78
2023/01/04 13:46:20;;;;;;;36.10;7.90;;;11.80;99.90;;;;;;5003378;28;20204;-77